Time;durP1;ratioP1;P1;durP2;ratioP2;P2;SDS_P1;SDS_P2;PMS_P1;PMS_P2;Temp;Humidity;BMP_temperature;BMP_pressure;BME280_temperature;BME280_humidity;BME280_pressure;Samples;Min_cycle;Max_cycle;Signal;HPM_P1;HPM_P2
2022/11/03 00:02:06;;;;;;;4.47;2.43;;;;;;;0.15;100.00;96846.63;5041333;28;20520;-78
2022/11/03 00:04:33;;;;;;;2.33;2.07;;;;;;;0.26;100.00;96871.66;5020077;28;20532;-78
2022/11/03 00:06:59;;;;;;;2.40;2.10;;;;;;;0.29;100.00;96876.38;5021434;28;20497;-78
2022/11/03 00:09:26;;;;;;;1.77;1.67;;;;;;;0.31;100.00;96868.34;5045869;28;20530;-78
2022/11/03 00:11:53;;;;;;;5.23;1.97;;;;;;;0.40;100.00;96882.47;5032784;28;20454;-78
2022/11/03 00:14:20;;;;;;;3.57;2.20;;;;;;;-0.15;100.00;96856.72;5046079;28;20811;-77
2022/11/03 00:16:47;;;;;;;3.10;2.13;;;;;;;0.31;100.00;96890.97;5016744;28;20525;-77
2022/11/03 00:19:15;;;;;;;2.27;2.10;;;;;;;-0.03;100.00;96850.34;5037558;28;20445;-77
2022/11/03 00:21:43;;;;;;;2.90;1.67;;;;;;;-0.01;100.00;96835.28;5049731;28;20492;-78
2022/11/03 00:24:10;;;;;;;5.37;2.80;;;;;;;0.62;100.00;96897.19;5020231;28;20540;-77
2022/11/03 00:26:37;;;;;;;4.13;1.93;;;;;;;0.79;100.00;96898.63;5022430;28;20983;-77
2022/11/03 00:29:10;;;;;;;4.37;2.60;;;;;;;0.52;100.00;96857.06;5008001;28;20462;-78
2022/11/03 00:31:39;;;;;;;8.50;2.90;;;;;;;0.67;100.00;96879.84;5005030;28;20482;-77
2022/11/03 00:34:07;;;;;;;3.40;2.30;;;;;;;0.85;100.00;96895.03;5017356;28;20514;-77
2022/11/03 00:36:43;;;;;;;6.67;3.10;;;;;;;0.75;100.00;96897.56;5014324;28;20483;-77
2022/11/03 00:39:11;;;;;;;2.07;1.90;;;;;;;0.47;100.00;96870.03;5016731;28;20457;-78
2022/11/03 00:41:38;;;;;;;2.33;2.13;;;;;;;0.33;100.00;96874.06;5047946;28;20468;-78
2022/11/03 00:44:05;;;;;;;3.23;2.30;;;;;;;0.34;100.00;96867.84;5048382;28;20460;-78
2022/11/03 00:46:35;;;;;;;6.40;2.67;;;;;;;0.51;100.00;96873.69;5039265;28;20588;-78
2022/11/03 00:49:03;;;;;;;4.63;2.30;;;;;;;-0.06;100.00;96861.22;5036163;28;20946;-78
2022/11/03 00:51:30;;;;;;;2.23;1.97;;;;;;;-0.33;100.00;96835.22;5035690;28;20434;-77
2022/11/03 00:54:01;;;;;;;2.40;1.50;;;;;;;0.13;100.00;96860.88;5047700;28;20429;-77
2022/11/03 00:56:33;;;;;;;5.13;2.90;;;;;;;0.11;100.00;96839.53;5050274;28;20422;-77
2022/11/03 00:59:01;;;;;;;4.60;1.70;;;;;;;0.27;100.00;96868.06;5049246;28;20910;-77
2022/11/03 01:01:30;;;;;;;6.60;3.83;;;;;;;0.27;100.00;96864.66;5035729;28;20461;-77
2022/11/03 01:06:49;;;;;;;2.30;2.10;;;;;;;0.26;100.00;96843.06;5016484;28;20407;-77
2022/11/03 01:09:19;;;;;;;4.53;2.53;;;;;;;0.57;100.00;96858.94;5047903;28;20418;-77
2022/11/03 01:12:02;;;;;;;9.63;3.00;;;;;;;0.57;100.00;96849.31;5023454;28;20479;-77
2022/11/03 01:14:32;;;;;;;3.37;3.17;;;;;;;0.38;100.00;96813.50;5013787;28;20905;-77
2022/11/03 01:16:59;;;;;;;4.27;3.30;;;;;;;0.63;100.00;96846.72;5025150;28;20988;-77
2022/11/03 01:19:26;;;;;;;10.00;3.63;;;;;;;0.44;100.00;96809.94;5046842;28;20442;-77
2022/11/03 01:21:53;;;;;;;4.00;2.60;;;;;;;0.49;100.00;96822.97;5003853;28;20987;-77
2022/11/03 01:24:20;;;;;;;5.30;3.00;;;;;;;0.55;100.00;96846.19;5014938;28;20440;-78
2022/11/03 01:26:47;;;;;;;4.20;2.60;;;;;;;0.61;100.00;96843.59;5028468;28;20429;-77
2022/11/03 01:29:14;;;;;;;5.20;2.90;;;;;;;0.29;100.00;96800.19;5054727;28;20440;-77
2022/11/03 01:31:41;;;;;;;2.50;2.30;;;;;;;0.18;100.00;96814.94;5039011;28;21008;-78
2022/11/03 01:34:13;;;;;;;7.40;2.80;;;;;;;-0.21;100.00;96775.34;5018618;28;20438;-77
2022/11/03 01:36:39;;;;;;;7.90;2.47;;;;;;;0.28;100.00;96822.03;5049386;28;20502;-77
2022/11/03 01:39:09;;;;;;;10.00;2.57;;;;;;;-0.15;100.00;96763.94;5026516;28;20463;-77
2022/11/03 01:41:36;;;;;;;4.53;2.10;;;;;;;0.03;100.00;96801.03;5047314;28;20891;-78
2022/11/03 01:44:27;;;;;;;3.10;2.07;;;;;;;0.27;100.00;96794.47;5044490;28;20791;-77
2022/11/03 01:46:53;;;;;;;2.43;2.10;;;;;;;0.39;100.00;96797.66;4998477;28;20522;-77
2022/11/03 01:49:45;;;;;;;2.60;2.23;;;;;;;0.20;100.00;96760.88;5014448;28;20423;-77
2022/11/03 01:52:23;;;;;;;3.10;2.60;;;;;;;0.23;100.00;96751.78;5034821;28;20462;-78
2022/11/03 01:54:59;;;;;;;3.27;2.97;;;;;;;0.34;100.00;96776.81;5049139;28;20481;-77
2022/11/03 01:57:34;;;;;;;3.97;2.70;;;;;;;0.25;100.00;96753.09;5021029;28;20550;-77
2022/11/03 02:00:01;;;;;;;2.63;2.43;;;;;;;0.51;100.00;96797.47;5014808;28;20403;-77
2022/11/03 02:02:38;;;;;;;8.70;3.20;;;;;;;0.31;100.00;96782.53;5045915;28;20441;-77
2022/11/03 02:05:06;;;;;;;13.23;3.17;;;;;;;0.39;100.00;96794.28;5028160;28;20438;-77
2022/11/03 02:07:47;;;;;;;4.83;3.00;;;;;;;0.14;100.00;96755.88;5004152;28;20459;-78
2022/11/03 02:10:14;;;;;;;10.90;2.90;;;;;;;0.11;100.00;96754.56;5022717;28;20427;-77
2022/11/03 02:12:42;;;;;;;6.70;3.13;;;;;;;0.03;100.00;96729.03;5013711;28;20455;-77
2022/11/03 02:15:13;;;;;;;5.10;2.97;;;;;;;-0.15;100.00;96727.56;5041389;28;20418;-77
2022/11/03 02:17:42;;;;;;;3.23;2.97;;;;;;;-0.05;100.00;96738.06;5028044;28;20929;-77
2022/11/03 02:20:13;;;;;;;3.43;2.67;;;;;;;0.23;100.00;96775.97;5036195;28;20430;-77
2022/11/03 02:22:53;;;;;;;4.13;3.83;;;;;;;0.20;100.00;96767.88;5043426;28;21051;-77
2022/11/03 02:25:35;;;;;;;3.73;2.80;;;;;;;0.29;100.00;96753.41;5050223;28;20478;-77
2022/11/03 02:28:04;;;;;;;3.17;2.87;;;;;;;0.27;100.00;96743.25;5045632;28;20452;-77
2022/11/03 02:30:40;;;;;;;10.07;3.90;;;;;;;0.47;100.00;96750.38;5040123;28;20429;-78
2022/11/03 02:33:18;;;;;;;5.17;3.20;;;;;;;0.32;100.00;96741.72;5039907;28;20526;-78
2022/11/03 02:36:01;;;;;;;5.00;3.53;;;;;;;-0.45;100.00;96644.22;5014895;28;20419;-77
2022/11/03 02:38:31;;;;;;;4.83;3.67;;;;;;;0.06;100.00;96745.94;5044315;28;20810;-77
2022/11/03 02:41:01;;;;;;;5.90;3.80;;;;;;;-0.23;100.00;96701.28;5034567;28;20428;-77
2022/11/03 02:43:29;;;;;;;7.07;4.83;;;;;;;0.08;100.00;96721.25;5052487;28;20437;-77
2022/11/03 02:45:55;;;;;;;5.40;4.20;;;;;;;0.18;100.00;96741.34;5041552;28;20522;-77
2022/11/03 02:48:22;;;;;;;9.37;5.73;;;;;;;-0.21;100.00;96688.81;5029977;28;20986;-77
2022/11/03 02:50:49;;;;;;;10.23;6.37;;;;;;;-0.04;100.00;96739.63;5019936;28;20931;-77
2022/11/03 02:53:16;;;;;;;11.10;6.20;;;;;;;0.07;100.00;96730.09;5013394;28;20453;-77
2022/11/03 02:56:21;;;;;;;7.03;4.87;;;;;;;0.23;100.00;96738.78;5040095;28;20476;-77
2022/11/03 02:59:01;;;;;;;15.47;4.60;;;;;;;0.07;100.00;96735.28;5029065;28;20932;-77
2022/11/03 03:01:48;;;;;;;6.43;4.60;;;;;;;-0.04;100.00;96736.25;5012961;28;20509;-77
2022/11/03 03:04:55;;;;;;;16.27;5.23;;;;;;;-0.09;100.00;96724.00;5046342;28;20414;-78
2022/11/03 03:07:35;;;;;;;5.50;4.40;;;;;;;-0.13;100.00;96727.34;5038147;28;20496;-77
2022/11/03 03:10:10;;;;;;;17.60;8.47;;;;;;;-0.20;100.00;96698.97;5043450;28;20433;-77
2022/11/03 03:12:42;;;;;;;19.20;9.30;;;;;;;-0.27;100.00;96693.19;5015232;28;20465;-77
2022/11/03 03:15:11;;;;;;;21.97;7.47;;;;;;;-0.38;100.00;96683.75;5038850;28;20441;-77
2022/11/03 03:17:47;;;;;;;8.30;4.57;;;;;;;-0.03;100.00;96714.41;5053919;28;20451;-78
2022/11/03 03:20:22;;;;;;;12.13;5.90;;;;;;;-0.53;100.00;96676.63;5030470;28;20467;-77
2022/11/03 03:22:57;;;;;;;4.77;4.00;;;;;;;-0.42;100.00;96695.66;5022935;28;20485;-77
2022/11/03 03:25:31;;;;;;;6.13;4.40;;;;;;;-0.19;100.00;96713.50;5034486;28;20406;-78
2022/11/03 03:28:05;;;;;;;7.10;4.43;;;;;;;-0.57;100.00;96661.75;5022621;28;20462;-78
2022/11/03 03:30:34;;;;;;;5.00;4.50;;;;;;;-0.37;100.00;96680.91;5044696;28;20945;-77
2022/11/03 03:33:04;;;;;;;5.17;4.23;;;;;;;-0.22;100.00;96687.25;5032325;28;20453;-78
2022/11/03 03:35:33;;;;;;;10.60;5.30;;;;;;;-0.28;100.00;96678.63;5009844;28;20876;-78
2022/11/03 03:38:09;;;;;;;7.63;5.23;;;;;;;-0.35;100.00;96665.84;5026479;28;20426;-78
2022/11/03 03:40:39;;;;;;;8.23;5.30;;;;;;;-0.15;100.00;96698.22;5033599;28;20434;-77
2022/11/03 03:43:09;;;;;;;7.00;5.87;;;;;;;-0.27;100.00;96677.59;5002360;28;20462;-77
2022/11/03 03:45:37;;;;;;;8.33;4.30;;;;;;;-0.26;100.00;96699.19;5023207;28;20431;-78
2022/11/03 03:48:05;;;;;;;5.33;4.83;;;;;;;-0.63;100.00;96666.91;5034782;28;21043;-77
2022/11/03 03:50:36;;;;;;;12.63;5.30;;;;;;;-0.69;100.00;96654.13;5042780;28;20423;-77
2022/11/03 03:53:08;;;;;;;6.60;5.17;;;;;;;-0.38;100.00;96681.94;5047252;28;20478;-77
2022/11/03 03:55:38;;;;;;;8.27;5.03;;;;;;;-0.27;100.00;96677.59;5043506;28;20420;-77
2022/11/03 03:58:05;;;;;;;11.60;5.13;;;;;;;-0.54;100.00;96615.31;5035899;28;20807;-77
2022/11/03 04:00:32;;;;;;;5.30;4.80;;;;;;;-0.29;100.00;96638.09;5040938;28;20841;-78
2022/11/03 04:02:59;;;;;;;6.40;4.60;;;;;;;-0.12;100.00;96653.56;5034672;28;21025;-77
2022/11/03 04:05:26;;;;;;;9.33;4.90;;;;;;;-0.18;100.00;96657.94;5052164;28;20429;-77
2022/11/03 04:07:53;;;;;;;7.50;5.03;;;;;;;-0.16;100.00;96663.66;5032700;28;20466;-78
2022/11/03 04:10:21;;;;;;;5.20;4.70;;;;;;;-0.40;100.00;96616.47;5032133;28;20426;-78
2022/11/03 04:23:56;;;;;;;9.63;4.77;;;;;;;-0.55;100.00;96633.72;5015354;28;20498;-78
2022/11/03 04:26:23;;;;;;;10.00;5.17;;;;;;;-0.36;100.00;96655.72;4995839;28;20436;-78
2022/11/03 04:28:52;;;;;;;7.50;5.27;;;;;;;-0.86;100.00;96562.63;5022683;28;20526;-78
2022/11/03 04:31:19;;;;;;;11.20;5.43;;;;;;;-0.21;100.00;96655.06;5035392;28;20445;-78
2022/11/03 04:33:47;;;;;;;12.17;6.03;;;;;;;-0.27;100.00;96641.22;5039215;28;20428;-77
2022/11/03 04:36:21;;;;;;;9.83;6.20;;;;;;;-0.23;100.00;96646.72;5022854;28;20431;-78
2022/11/03 04:38:49;;;;;;;8.90;6.13;;;;;;;-0.51;100.00;96601.06;5038554;28;20436;-78
2022/11/03 04:41:21;;;;;;;6.30;5.10;;;;;;;-0.44;100.00;96591.25;5021000;28;20458;-77
2022/11/03 04:43:50;;;;;;;9.40;8.37;;;;;;;-0.15;100.00;96648.84;5040014;28;20852;-78
2022/11/03 04:46:23;;;;;;;12.27;7.50;;;;;;;-0.57;100.00;96609.84;5032195;28;20469;-77
2022/11/03 04:48:52;;;;;;;9.97;6.80;;;;;;;-0.49;100.00;96617.97;5043449;28;20462;-78
2022/11/03 04:51:23;;;;;;;8.57;6.40;;;;;;;-0.46;100.00;96637.44;5005996;28;20471;-78
2022/11/03 04:54:16;;;;;;;8.40;6.03;;;;;;;-0.47;100.00;96641.09;5040875;28;20453;-77
2022/11/03 04:56:43;;;;;;;9.80;7.13;;;;;;;-0.55;100.00;96608.56;5011241;28;20522;-77
2022/11/03 04:59:11;;;;;;;12.10;10.47;;;;;;;-0.30;100.00;96626.13;5039922;28;20422;-78
2022/11/03 05:01:38;;;;;;;13.83;8.20;;;;;;;-0.68;100.00;96576.00;5034544;28;20824;-78
2022/11/03 05:04:14;;;;;;;13.57;8.53;;;;;;;-0.46;100.00;96588.88;5032329;28;20441;-78
2022/11/03 05:06:50;;;;;;;10.73;8.10;;;;;;;-0.83;100.00;96529.16;5027953;28;20951;-78
2022/11/03 05:09:23;;;;;;;8.07;6.70;;;;;;;-0.90;100.00;96533.78;5037812;28;20488;-78
2022/11/03 05:11:50;;;;;;;7.90;6.43;;;;;;;-0.55;100.00;96568.81;5024047;28;20450;-78
2022/11/03 05:14:23;;;;;;;12.00;6.93;;;;;;;-0.36;100.00;96601.19;5031973;28;20571;-78
2022/11/03 05:16:54;;;;;;;6.90;6.13;;;;;;;-0.38;100.00;96595.44;5028922;28;20520;-78
2022/11/03 05:19:30;;;;;;;5.30;4.80;;;;;;;-0.38;100.00;96593.63;5029916;28;20456;-78
2022/11/03 05:21:59;;;;;;;5.63;5.13;;;;;;;-0.42;100.00;96586.56;5055707;28;20447;-78
2022/11/03 05:24:26;;;;;;;8.60;7.30;;;;;;;-0.38;100.00;96577.28;5046600;28;20446;-77
2022/11/03 05:26:56;;;;;;;8.10;6.50;;;;;;;-0.65;100.00;96515.81;5034804;28;20875;-77
2022/11/03 05:29:43;;;;;;;8.57;6.30;;;;;;;-0.21;100.00;96574.50;5025345;28;20458;-78
2022/11/03 05:32:15;;;;;;;13.17;8.30;;;;;;;-0.41;100.00;96556.97;5009363;28;20475;-77
2022/11/03 05:34:44;;;;;;;14.23;11.10;;;;;;;-0.28;100.00;96579.13;5054260;28;20428;-77
2022/11/03 05:37:22;;;;;;;10.67;8.40;;;;;;;-0.44;100.00;96566.06;5048707;28;20426;-77
2022/11/03 05:39:56;;;;;;;10.40;7.27;;;;;;;-0.66;100.00;96542.81;5022427;28;20434;-77
2022/11/03 05:42:22;;;;;;;9.87;7.07;;;;;;;-0.63;100.00;96567.47;5026891;28;20462;-77
2022/11/03 05:44:50;;;;;;;8.33;6.70;;;;;;;-0.88;100.00;96536.91;5037792;28;20517;-77
2022/11/03 05:47:21;;;;;;;9.50;7.40;;;;;;;-0.63;100.00;96575.28;5043676;28;20961;-78
2022/11/03 05:49:50;;;;;;;20.90;10.83;;;;;;;-0.69;100.00;96556.25;5036525;28;20462;-78
2022/11/03 05:52:25;;;;;;;21.07;9.70;;;;;;;-0.93;100.00;96529.88;5044708;28;20577;-77
2022/11/03 05:54:57;;;;;;;15.83;8.30;;;;;;;-0.91;100.00;96538.22;5024798;28;20444;-78
2022/11/03 05:57:27;;;;;;;8.00;6.80;;;;;;;-0.97;100.00;96530.63;5054655;28;20426;-78
2022/11/03 05:59:54;;;;;;;10.40;8.10;;;;;;;-1.54;100.00;96458.56;5024727;28;20436;-77
2022/11/03 06:02:37;;;;;;;8.87;7.43;;;;;;;-0.83;100.00;96556.94;5041166;28;20472;-78
2022/11/03 06:05:17;;;;;;;12.50;8.20;;;;;;;-1.30;100.00;96501.28;5044208;28;20823;-78
2022/11/03 06:07:43;;;;;;;12.77;11.20;;;;;;;-1.06;100.00;96519.91;5041917;28;20787;-78
2022/11/03 06:10:22;;;;;;;14.03;11.40;;;;;;;-0.67;100.00;96543.03;5023638;28;20434;-77
2022/11/03 06:12:49;;;;;;;13.80;8.67;;;;;;;-0.90;100.00;96500.06;5028781;28;20445;-77
2022/11/03 06:15:31;;;;;;;10.60;7.70;;;;;;;-0.66;100.00;96532.44;5053824;28;20938;-77
2022/11/03 06:17:58;;;;;;;10.20;8.10;;;;;;;-1.29;100.00;96430.25;5044862;28;20414;-77
2022/11/03 06:20:26;;;;;;;10.43;7.87;;;;;;;-0.61;100.00;96506.50;5045837;28;20454;-77
2022/11/03 06:22:55;;;;;;;14.10;9.80;;;;;;;-0.70;100.00;96504.59;5015563;28;20455;-77
2022/11/03 06:25:22;;;;;;;11.37;8.43;;;;;;;-0.49;100.00;96540.06;5045070;28;20993;-77
2022/11/03 06:27:50;;;;;;;8.83;7.93;;;;;;;-0.76;100.00;96501.19;5025768;28;20427;-77
2022/11/03 06:30:34;;;;;;;7.90;7.10;;;;;;;-0.62;100.00;96536.06;5024186;28;20425;-77
2022/11/03 06:33:09;;;;;;;8.20;6.70;;;;;;;-0.92;100.00;96492.53;5037990;28;20480;-77
2022/11/03 06:35:36;;;;;;;7.10;6.40;;;;;;;-0.91;100.00;96494.09;5013472;28;20429;-77
2022/11/03 06:38:04;;;;;;;7.53;6.30;;;;;;;-0.92;100.00;96465.81;5040784;28;20438;-78
2022/11/03 06:40:35;;;;;;;13.40;6.23;;;;;;;-0.53;100.00;96520.03;5042765;28;20449;-78
2022/11/03 06:43:27;;;;;;;9.10;7.20;;;;;;;-0.57;100.00;96498.19;5038138;28;20565;-78
2022/11/03 06:45:57;;;;;;;8.87;6.60;;;;;;;-0.50;100.00;96478.00;5046433;28;20434;-78
2022/11/03 06:48:28;;;;;;;14.00;10.00;;;;;;;-0.22;100.00;96498.41;5046869;28;20458;-77
2022/11/03 06:50:57;;;;;;;11.27;8.87;;;;;;;-0.17;100.00;96505.41;5047102;28;20417;-77
2022/11/03 06:53:28;;;;;;;9.67;7.80;;;;;;;-0.30;100.00;96493.66;5041457;28;20425;-78
2022/11/03 06:55:55;;;;;;;11.60;7.13;;;;;;;-0.13;100.00;96522.88;5020488;28;20431;-77
2022/11/03 06:58:27;;;;;;;8.53;7.57;;;;;;;-0.03;100.00;96541.09;5017598;28;20437;-77
2022/11/03 07:01:00;;;;;;;8.77;6.37;;;;;;;-0.42;100.00;96488.66;5003993;28;20562;-78
2022/11/03 07:03:32;;;;;;;6.53;5.93;;;;;;;-0.03;100.00;96527.31;5023514;28;20431;-78
2022/11/03 07:06:02;;;;;;;7.00;5.30;;;;;;;-0.21;100.00;96486.97;5022639;28;20972;-78
2022/11/03 07:08:55;;;;;;;6.93;6.17;;;;;;;0.18;100.00;96521.16;5054425;28;20544;-78
2022/11/03 07:11:30;;;;;;;5.37;4.80;;;;;;;-0.18;100.00;96488.28;5044165;28;20464;-77
2022/11/03 07:14:13;;;;;;;7.07;5.57;;;;;;;0.12;100.00;96509.19;5029347;28;20442;-77
2022/11/03 07:16:43;;;;;;;6.13;5.47;;;;;;;0.27;100.00;96527.44;5027742;28;20536;-78
2022/11/03 07:19:18;;;;;;;9.93;6.87;;;;;;;0.20;100.00;96508.69;5046766;28;20466;-78
2022/11/03 07:21:58;;;;;;;5.67;4.50;;;;;;;0.29;100.00;96522.00;5048125;28;20445;-78
2022/11/03 07:24:28;;;;;;;9.90;6.20;;;;;;;0.26;100.00;96499.84;5043229;28;20504;-78
2022/11/03 07:27:14;;;;;;;7.57;6.73;;;;;;;0.41;100.00;96514.75;5039473;28;20510;-78
2022/11/03 07:29:42;;;;;;;6.10;5.40;;;;;;;0.41;100.00;96491.34;5040906;28;20462;-78
2022/11/03 07:32:21;;;;;;;8.03;5.80;;;;;;;0.20;100.00;96456.69;5046754;28;20462;-78
2022/11/03 07:34:51;;;;;;;10.93;5.93;;;;;;;0.37;100.00;96479.09;5046993;28;20421;-78
2022/11/03 07:37:22;;;;;;;5.40;5.00;;;;;;;0.70;100.00;96512.47;5025519;28;20515;-78
2022/11/03 07:39:49;;;;;;;10.20;6.73;;;;;;;0.78;100.00;96491.13;5043113;28;20475;-78
2022/11/03 07:42:20;;;;;;;10.40;5.80;;;;;;;0.81;100.00;96485.41;5043629;28;20816;-78
2022/11/03 07:44:48;;;;;;;11.63;5.50;;;;;;;0.65;100.00;96438.81;5017104;28;20550;-78
2022/11/03 07:47:20;;;;;;;5.90;5.40;;;;;;;0.88;100.00;96472.13;5030034;28;20435;-78
2022/11/03 07:49:47;;;;;;;5.63;5.03;;;;;;;0.83;100.00;96462.50;5036921;28;20560;-78
2022/11/03 07:52:18;;;;;;;6.20;5.60;;;;;;;0.92;100.00;96473.16;5043774;28;21032;-78
2022/11/03 07:54:45;;;;;;;9.80;6.70;;;;;;;0.65;100.00;96423.97;5030185;28;20746;-78
2022/11/03 07:57:23;;;;;;;7.83;7.00;;;;;;;1.14;100.00;96472.91;5033426;28;20994;-78
2022/11/03 07:59:55;;;;;;;9.10;6.07;;;;;;;0.79;100.00;96417.22;5023649;28;20509;-78
2022/11/03 08:02:24;;;;;;;11.13;7.87;;;;;;;1.13;100.00;96464.31;5038386;28;20482;-79
2022/11/03 08:04:51;;;;;;;7.73;7.03;;;;;;;1.15;100.00;96459.63;5028008;28;20433;-78
2022/11/03 08:07:18;;;;;;;12.67;7.70;;;;;;;1.26;100.00;96418.72;5042659;28;20436;-79
2022/11/03 08:09:44;;;;;;;11.57;9.10;;;;;;;1.67;100.00;96463.69;5042275;28;20457;-79
2022/11/03 08:12:11;;;;;;;12.70;9.67;;;;;;;1.02;100.00;96347.44;5027205;28;20459;-79
2022/11/03 08:14:38;;;;;;;12.27;10.37;;;;;;;1.44;100.00;96393.94;5046945;28;20525;-79
2022/11/03 08:17:04;;;;;;;13.23;9.93;;;;;;;1.40;100.00;96390.31;5048161;28;20524;-80
2022/11/03 08:19:31;;;;;;;9.27;8.23;;;;;;;1.65;100.00;96415.50;5044448;28;20795;-80
2022/11/03 08:21:57;;;;;;;9.57;8.67;;;;;;;1.56;100.00;96402.22;5046635;28;20465;-80
2022/11/03 08:24:24;;;;;;;11.53;8.40;;;;;;;1.72;100.00;96406.31;5025855;28;20429;-80
2022/11/03 08:26:51;;;;;;;11.17;8.43;;;;;;;1.75;100.00;96378.97;5039664;28;20446;-80
2022/11/03 08:29:17;;;;;;;8.20;7.37;;;;;;;1.48;100.00;96319.44;5043958;28;20472;-80
2022/11/03 08:31:44;;;;;;;7.47;5.93;;;;;;;1.62;100.00;96314.41;5043478;28;20491;-80
2022/11/03 08:34:11;;;;;;;6.23;5.63;;;;;;;2.15;100.00;96345.91;5024210;28;20434;-80
2022/11/03 08:36:37;;;;;;;6.30;5.20;;;;;;;2.22;100.00;96339.31;5030591;28;20444;-80
2022/11/03 08:39:04;;;;;;;9.50;6.70;;;;;;;1.86;100.00;96276.19;5026772;28;20453;-80
2022/11/03 08:41:30;;;;;;;14.93;6.93;;;;;;;2.45;100.00;96360.53;5048210;28;20453;-80
2022/11/03 08:43:57;;;;;;;10.10;6.70;;;;;;;1.90;100.00;96266.81;5036027;28;20524;-80
2022/11/03 08:46:24;;;;;;;8.13;6.33;;;;;;;2.50;100.00;96340.38;5043716;28;20445;-80
2022/11/03 08:48:50;;;;;;;8.33;7.03;;;;;;;2.72;100.00;96357.44;5047993;28;20541;-80
2022/11/03 08:51:17;;;;;;;10.00;7.10;;;;;;;2.53;100.00;96318.97;5031468;28;20453;-80
2022/11/03 08:53:45;;;;;;;9.97;6.70;;;;;;;2.87;100.00;96358.06;5025995;28;20480;-80
2022/11/03 08:56:12;;;;;;;7.93;6.20;;;;;;;2.83;100.00;96324.97;5051259;28;20437;-80
2022/11/03 08:58:43;;;;;;;9.17;6.47;;;;;;;2.82;100.00;96277.22;5047867;28;20429;-80
2022/11/03 09:01:10;;;;;;;7.73;7.00;;;;;;;3.35;100.00;96339.81;5043119;28;20473;-80
2022/11/03 09:03:37;;;;;;;14.10;6.70;;;;;;;2.99;100.00;96255.09;5046612;28;20525;-80
2022/11/03 09:06:05;;;;;;;10.67;4.93;;;;;;;3.79;100.00;96326.47;5023853;28;20995;-80
2022/11/03 09:08:31;;;;;;;8.53;5.13;;;;;;;3.99;100.00;96322.75;5035804;28;20426;-80
2022/11/03 09:11:18;;;;;;;13.50;5.27;;;;;;;4.13;100.00;96310.53;5023619;28;20450;-80
2022/11/03 09:13:44;;;;;;;7.17;4.57;;;;;;;4.28;100.00;96306.16;5049644;28;20439;-80
2022/11/03 09:16:11;;;;;;;6.77;4.30;;;;;;;4.56;100.00;96294.69;5037618;28;20430;-80
2022/11/03 09:18:38;;;;;;;8.80;5.60;;;;;;;4.64;100.00;96301.84;5048325;28;20472;-80
2022/11/03 09:21:05;;;;;;;6.40;4.10;;;;;;;4.39;100.00;96229.75;5015499;28;20886;-80
2022/11/03 09:23:31;;;;;;;6.87;3.90;;;;;;;4.91;100.00;96272.31;5042240;28;20441;-79
2022/11/03 09:25:58;;;;;;;5.50;3.83;;;;;;;4.71;100.00;96209.84;5016165;28;20423;-80
2022/11/03 09:28:25;;;;;;;5.00;4.27;;;;;;;5.36;100.00;96288.22;5043851;28;20437;-80
2022/11/03 09:30:51;;;;;;;5.97;3.83;;;;;;;5.36;100.00;96258.59;5037017;28;20508;-79
2022/11/03 09:33:18;;;;;;;3.80;3.50;;;;;;;5.58;100.00;96263.88;5032952;28;20449;-79
2022/11/03 09:35:45;;;;;;;7.70;5.13;;;;;;;5.71;100.00;96246.56;5027460;28;20872;-80
2022/11/03 09:38:11;;;;;;;6.13;4.97;;;;;;;5.90;100.00;96271.59;5042155;28;20438;-80
2022/11/03 09:40:38;;;;;;;6.07;5.53;;;;;;;5.47;100.00;96187.28;5046294;28;20456;-80
2022/11/03 09:43:05;;;;;;;4.60;3.90;;;;;;;5.79;100.00;96224.88;5021156;28;20532;-80
2022/11/03 09:45:32;;;;;;;5.03;3.87;;;;;;;5.88;100.00;96231.75;5025895;28;20462;-80
2022/11/03 09:48:00;;;;;;;4.50;4.10;;;;;;;6.43;100.00;96276.13;5034331;28;20534;-80
2022/11/03 09:50:27;;;;;;;6.57;3.57;;;;;;;6.26;100.00;96231.38;5027804;28;20467;-80
2022/11/03 09:52:55;;;;;;;4.53;3.90;;;;;;;6.61;100.00;96269.13;5035964;28;20557;-80
2022/11/03 09:55:24;;;;;;;5.10;3.53;;;;;;;6.51;100.00;96198.47;5025526;28;20978;-80
2022/11/03 09:57:58;;;;;;;9.50;5.90;;;;;;;6.97;100.00;96265.56;5039492;28;20520;-79
2022/11/03 10:00:26;;;;;;;10.67;5.53;;;;;;;6.94;100.00;96269.56;5043784;28;20441;-80
2022/11/03 10:02:53;;;;;;;5.50;4.30;;;;;;;6.66;100.00;96179.66;5049474;28;20920;-80
2022/11/03 10:05:26;;;;;;;4.90;3.27;;;;;;;7.44;100.00;96263.22;5019495;28;20438;-79
2022/11/03 10:08:05;;;;;;;6.90;3.43;;;;;;;6.91;100.00;96164.28;5042108;28;20503;-80
2022/11/03 10:10:34;;;;;;;6.13;4.03;;;;;;;7.49;100.00;96208.63;5022340;28;20497;-79
2022/11/03 10:13:01;;;;;;;13.30;3.60;;;;;;;7.99;100.00;96252.88;5026145;28;20454;-80
2022/11/03 10:15:28;;;;;;;3.50;3.20;;;;;;;7.87;100.00;96207.97;5036294;28;20437;-80
2022/11/03 10:17:55;;;;;;;4.00;3.13;;;;;;;7.69;100.00;96186.94;5027854;28;20444;-80
2022/11/03 10:20:22;;;;;;;8.60;3.47;;;;;;;8.28;100.00;96245.09;5049558;28;20429;-80
2022/11/03 10:22:53;;;;;;;4.87;3.07;;;;;;;8.03;100.00;96195.13;5015576;28;20485;-80
2022/11/03 10:25:58;;;;;;;5.73;3.20;;;;;;;8.33;100.00;96246.03;5019065;28;20869;-80
2022/11/03 10:28:28;;;;;;;4.53;3.70;;;;;;;8.10;100.00;96192.78;5029859;28;20535;-81
2022/11/03 10:31:05;;;;;;;6.10;4.30;;;;;;;8.30;100.00;96240.31;5046042;28;20481;-80
2022/11/03 10:33:51;;;;;;;5.40;2.90;;;;;;;8.54;100.00;96231.09;5032745;28;20438;-80
2022/11/03 10:36:18;;;;;;;4.37;3.03;;;;;;;8.66;100.00;96228.59;5031701;28;20433;-80
2022/11/03 10:38:49;;;;;;;4.30;2.53;;;;;;;8.56;100.00;96203.38;5015747;28;21018;-80
2022/11/03 10:41:18;;;;;;;4.20;3.07;;;;;;;8.75;100.00;96226.69;5043417;28;20444;-81
2022/11/03 10:44:04;;;;;;;5.93;3.50;;;;;;;8.77;100.00;96234.28;5043829;28;20432;-80
2022/11/03 10:46:32;;;;;;;5.90;2.60;;;;;;;8.88;100.00;96220.44;5038262;28;20758;-81
2022/11/03 10:49:19;;;;;;;5.07;3.67;;;;;;;8.77;100.00;96189.47;5047956;28;20476;-81
2022/11/03 10:51:49;;;;;;;5.13;2.80;;;;;;;9.18;100.00;96218.56;5022194;28;20462;-81
2022/11/03 10:54:18;;;;;;;6.13;2.67;;;;;;;9.12;100.00;96208.53;5050516;28;20424;-81
2022/11/03 10:56:47;;;;;;;5.93;3.43;;;;;;;8.65;100.00;96126.13;5050508;28;20484;-82
2022/11/03 10:59:19;;;;;;;4.13;2.90;;;;;;;8.67;100.00;96129.22;5037032;28;20428;-82
2022/11/03 11:01:46;;;;;;;5.50;3.00;;;;;;;9.09;100.00;96185.44;5050011;28;20449;-82
2022/11/03 11:04:17;;;;;;;4.87;2.10;;;;;;;9.39;100.00;96191.47;5032217;28;21022;-82
2022/11/03 11:06:45;;;;;;;3.20;2.60;;;;;;;8.58;100.00;96095.03;5051317;28;20465;-80
2022/11/03 11:09:19;;;;;;;2.60;2.40;;;;;;;9.29;100.00;96183.91;5055079;28;20458;-80
2022/11/03 11:12:22;;;;;;;5.73;2.60;;;;;;;9.12;100.00;96177.66;5035782;28;20844;-80
2022/11/03 11:14:56;;;;;;;3.40;3.10;;;;;;;9.31;100.00;96171.16;5047810;28;20440;-80
2022/11/03 11:17:44;;;;;;;3.40;2.20;;;;;;;9.32;100.00;96139.19;5036703;28;20434;-81
2022/11/03 11:20:21;;;;;;;3.43;2.00;;;;;;;9.63;100.00;96173.13;5062185;28;20491;-80
2022/11/03 11:22:49;;;;;;;2.73;2.53;;;;;;;9.49;100.00;96148.84;5051749;28;20464;-80
2022/11/03 11:25:19;;;;;;;7.03;2.93;;;;;;;9.82;100.00;96169.22;5050208;28;21165;-80
2022/11/03 11:27:46;;;;;;;5.63;2.30;;;;;;;9.94;100.00;96172.69;5053169;28;20441;-81
2022/11/03 11:30:18;;;;;;;5.50;2.40;;;;;;;9.95;100.00;96176.84;5052299;28;20470;-81
2022/11/03 11:32:45;;;;;;;4.53;2.33;;;;;;;9.93;100.00;96165.84;5048642;28;20444;-80
2022/11/03 11:35:15;;;;;;;7.67;2.70;;;;;;;10.04;100.00;96159.06;5052148;28;20442;-81
2022/11/03 11:37:42;;;;;;;3.97;2.70;;;;;;;10.05;100.00;96150.03;5054329;28;20943;-81
2022/11/03 11:40:18;;;;;;;3.80;2.93;;;;;;;10.31;100.00;96135.81;5058876;28;20492;-81
2022/11/03 11:43:05;;;;;;;10.13;2.60;;;;;;;10.26;100.00;96134.13;5057388;28;20449;-79
2022/11/03 11:46:10;;;;;;;4.23;2.33;;;;;;;10.50;100.00;96133.41;5042476;28;20441;-80
2022/11/03 11:48:37;;;;;;;5.27;3.57;;;;;;;10.49;100.00;96136.38;5038897;28;20432;-80
2022/11/03 11:51:10;;;;;;;4.93;2.40;;;;;;;10.39;100.00;96102.44;5050032;28;20835;-80
2022/11/03 11:53:39;;;;;;;3.63;3.33;;;;;;;10.67;100.00;96103.31;5056056;28;20453;-80
2022/11/03 11:56:11;;;;;;;3.87;2.27;;;;;;;11.00;100.00;96116.41;5058998;28;20456;-81
2022/11/03 11:58:49;;;;;;;3.93;2.83;;;;;;;10.70;100.00;96088.69;5049454;28;20528;-80
2022/11/03 12:01:27;;;;;;;4.13;2.17;;;;;;;10.26;100.00;96017.09;5045772;28;20472;-81